Latest Weather Observations for McArthur River Mine

IDD60801

Issued at 10:01 am CST Monday 21 August 2017 (issued every 30 minutes, with the page automatically refreshed every 10 minutes)

About weather observations | Map of weather stations | Latest weather observations for NT | Other Formats
Station Details ID: 014704 Name: MCARTHUR RIVER MINE AIRPORT Lat: -16.44 Lon: 136.08 Height: 40.0 m
Data from the previous 72 hours. | See also: Recent months at McArthur River Mine
Date/Time
CST
Temp
°C
App
Temp
°C
Dew
Point
°C
Rel
Hum
%
Delta-T
°C
Wind Press
QNH
hPa
Press
MSL
hPa
Rain since
9am
mm
Dir  Spd
km/h
Gust
km/h
Spd
kts
Gust
kts
21/10:00am 26.5 23.9 6.0 27 10.6 NE 9 15 5 8 1015.6 1015.5 0.0
21/09:30am 24.2 23.2 7.4 34 8.8 SE 2 7 1 4 1015.7 1015.6 0.0
21/09:00am 22.3 22.1 9.1 43 7.1 CALM 0 6 0 3 1015.8 1015.7 0.0
21/08:30am 19.0 18.9 9.5 54 5.0 CALM 0 0 0 0 1015.7 1015.6 0.0
21/08:00am 16.3 16.1 9.0 62 3.8 CALM 0 6 0 3 1015.7 1015.6 0.0
21/07:30am 12.9 12.6 8.8 76 2.1 CALM 0 0 0 0 1015.4 1015.3 0.0
21/07:00am 10.7 9.7 7.4 80 1.6 SW 2 6 1 3 1015.0 1014.9 0.0
21/06:30am 10.6 10.0 7.3 80 1.6 CALM 0 0 0 0 1014.5 1014.4 0.0
21/06:00am 11.2 10.6 7.5 78 1.8 CALM 0 0 0 0 1014.3 1014.2 0.0
21/05:30am 11.6 11.1 7.7 77 1.9 CALM 0 0 0 0 1014.1 1014.0 0.0
21/05:00am 11.5 10.8 6.8 73 2.2 CALM 0 0 0 0 1013.9 1013.8 0.0
21/04:30am 12.4 11.7 6.9 69 2.6 CALM 0 6 0 3 1013.8 1013.7 0.0
21/04:00am 12.6 11.0 7.9 73 2.3 WSW 6 7 3 4 1013.7 1013.6 0.0
21/03:30am 12.7 11.0 7.4 70 2.6 W 6 7 3 4 1013.6 1013.5 0.0
21/03:00am 13.2 11.2 7.2 67 2.9 WNW 7 9 4 5 1013.7 1013.6 0.0
21/02:30am 14.0 12.6 7.1 63 3.4 SW 4 6 2 3 1013.7 1013.6 0.0
21/02:00am 14.8 12.9 7.6 62 3.6 SSW 7 7 4 4 1014.0 1013.9 0.0
21/01:30am 15.0 14.6 8.3 64 3.4 CALM 0 0 0 0 1014.0 1013.9 0.0
21/01:00am 15.7 15.2 8.0 60 3.9 CALM 0 0 0 0 1014.1 1014.0 0.0
21/12:30am 16.1 15.7 8.3 60 4.0 CALM 0 0 0 0 1014.4 1014.3 0.0
21/12:00am 17.2 16.7 7.8 54 4.8 CALM 0 0 0 0 1014.4 1014.3 0.0
 
Date/Time
CST
Temp
°C
App
Temp
°C
Dew
Point
°C
Rel
Hum
%
Delta-T
°C
Wind Press
QNH
hPa
Press
MSL
hPa
Rain since
9am
mm
Dir  Spd
km/h
Gust
km/h
Spd
kts
Gust
kts
20/11:30pm 18.5 17.9 7.6 49 5.5 CALM 0 6 0 3 1014.4 1014.3 0.0
20/11:00pm 19.7 18.1 8.1 47 6.0 NNE 6 7 3 4 1014.5 1014.4 0.0
20/10:30pm 21.0 19.3 8.3 44 6.6 N 7 9 4 5 1014.5 1014.4 0.0
20/10:00pm 21.5 19.2 7.3 40 7.3 N 9 9 5 5 1014.4 1014.3 0.0
20/09:30pm 22.2 19.5 5.6 34 8.3 N 9 11 5 6 1014.3 1014.2 0.0
20/09:00pm 23.0 20.1 4.5 30 9.1 N 9 11 5 6 1014.1 1014.0 0.0
20/08:30pm 24.1 21.0 3.4 26 10.1 N 9 11 5 6 1014.0 1013.9 0.0
20/08:00pm 25.8 21.8 3.1 23 11.1 NE 13 17 7 9 1013.8 1013.7 0.0
20/07:30pm 26.7 22.5 1.9 20 12.0 NE 13 20 7 11 1013.4 1013.3 0.0
20/07:00pm 27.7 22.9 0.5 17 12.9 NNE 15 24 8 13 1012.7 1012.6 0.0
20/06:30pm 29.6 26.4 -0.7 14 14.3 SE 6 6 3 3 1012.3 1012.2 0.0
20/06:00pm 32.2 29.0 -0.8 12 15.8 SSE 6 9 3 5 1012.1 1012.0 0.0
20/05:30pm 33.6 30.0 -2.2 10 16.9 SSE 7 11 4 6 1012.1 1012.0 0.0
20/05:00pm 34.3 30.4 -1.7 10 17.2 ESE 9 15 5 8 1012.0 1011.9 0.0
20/04:30pm 34.4 29.3 -1.6 10 17.3 SE 15 26 8 14 1012.0 1011.9 0.0
20/04:00pm 34.4 29.7 -1.6 10 17.3 SSE 13 24 7 13 1011.9 1011.8 0.0
20/03:30pm 34.0 30.0 -1.9 10 17.1 SSE 9 19 5 10 1012.0 1011.9 0.0
20/03:00pm 34.8 30.2 -1.3 10 17.5 ESE 13 24 7 13 1012.4 1012.3 0.0
20/02:30pm 34.3 29.6 -1.7 10 17.2 ESE 13 22 7 12 1012.8 1012.7 0.0
20/02:00pm 33.8 29.3 -3.5 9 17.3 ENE 11 20 6 11 1013.3 1013.2 0.0
20/01:30pm 33.6 28.5 -5.2 8 17.4 E 13 26 7 14 1014.0 1013.9 0.0
20/01:00pm 32.8 27.8 -4.2 9 16.8 ESE 13 26 7 14 1014.7 1014.6 0.0
20/12:30pm 32.8 28.2 -4.2 9 16.8 SE 11 19 6 10 1015.2 1015.1 0.0
20/12:00pm 32.2 27.0 -6.2 8 16.8 ESE 13 22 7 12 1015.9 1015.8 0.0
20/11:30am 30.7 25.2 -5.8 9 15.8 ESE 15 22 8 12 1016.2 1016.1 0.0
20/11:00am 31.1 25.6 -5.5 9 16.0 ESE 15 24 8 13 1016.8 1016.7 0.0
20/10:30am 29.6 23.5 -8.1 8 15.6 ESE 17 26 9 14 1017.2 1017.1 0.0
20/10:00am 28.8 22.7 -7.2 9 15.0 ESE 17 26 9 14 1017.5 1017.4 0.0
20/09:30am 27.3 21.0 -9.8 8 14.5 ESE 17 28 9 15 1017.5 1017.4 0.0
20/09:00am 26.5 19.9 -8.9 9 14.0 ESE 19 30 10 16 1017.4 1017.3 0.0
20/08:30am 25.4 20.7 -5.0 13 12.8 ESE 11 20 6 11 1017.5 1017.4 0.0
20/08:00am 21.5 19.0 1.7 27 9.2 SW 4 7 2 4 1017.2 1017.1 0.0
20/07:30am 17.2 16.7 10.6 65 3.5 WSW 4 7 2 4 1016.9 1016.8 0.0
20/07:00am 14.6 13.2 11.0 79 1.9 WSW 9 11 5 6 1016.6 1016.5 0.0
20/06:30am 14.4 13.1 11.4 82 1.6 WSW 9 11 5 6 1016.3 1016.2 0.0
20/06:00am 14.9 13.9 12.4 85 1.4 WSW 9 11 5 6 1016.1 1016.0 0.0
20/05:30am 15.5 15.2 12.8 84 1.5 WSW 6 9 3 5 1015.7 1015.6 0.0
20/05:00am 15.8 15.4 13.1 84 1.5 WNW 7 9 4 5 1015.2 1015.1 0.0
20/04:30am 16.7 16.7 13.6 82 1.7 WNW 6 7 3 4 1014.9 1014.8 0.0
20/04:00am 17.3 17.4 14.0 81 1.9 NW 6 7 3 4 1014.9 1014.8 0.0
20/03:30am 18.0 18.1 13.9 77 2.3 WSW 6 7 3 4 1014.9 1014.8 0.0
20/03:00am 18.6 19.4 14.7 78 2.3 SW 4 7 2 4 1014.9 1014.8 0.0
20/02:30am 18.8 19.1 15.1 79 2.2 SW 7 9 4 5 1015.0 1014.9 0.0
20/02:00am 19.1 19.6 15.0 77 2.4 WSW 6 7 3 4 1014.9 1014.8 0.0
20/01:30am 19.4 20.2 14.9 75 2.6 W 4 6 2 3 1014.9 1014.8 0.0
20/01:00am 20.1 21.5 14.5 70 3.3 CALM 0 0 0 0 1015.1 1015.0 0.0
20/12:30am 21.5 21.9 15.3 68 3.7 NW 7 9 4 5 1015.4 1015.3 0.0
20/12:00am 23.0 23.8 14.8 60 4.9 NE 4 6 2 3 1015.6 1015.5 0.0
 
Date/Time
CST
Temp
°C
App
Temp
°C
Dew
Point
°C
Rel
Hum
%
Delta-T
°C
Wind Press
QNH
hPa
Press
MSL
hPa
Rain since
9am
mm
Dir  Spd
km/h
Gust
km/h
Spd
kts
Gust
kts
19/11:30pm 24.0 24.5 15.0 57 5.4 ENE 6 7 3 4 1015.6 1015.5 0.0
19/11:00pm 24.8 25.1 14.6 53 6.1 NNE 6 7 3 4 1015.5 1015.4 0.0
19/10:30pm 26.2 26.5 15.0 50 6.8 NE 7 13 4 7 1015.5 1015.4 0.0
19/10:00pm 26.7 26.4 15.4 50 6.9 ENE 11 17 6 9 1015.5 1015.4 0.0
19/09:30pm 27.6 27.2 15.3 47 7.5 ENE 11 19 6 10 1015.4 1015.3 0.0
19/09:00pm 28.3 27.2 14.2 42 8.5 ENE 13 20 7 11 1015.3 1015.2 0.0
19/08:30pm 29.3 26.6 11.8 34 10.2 ENE 17 30 9 16 1015.2 1015.1 0.0
19/08:00pm 29.9 28.1 10.9 31 10.9 NE 11 17 6 9 1014.8 1014.7 0.0
19/07:30pm 31.2 27.8 7.6 23 12.9 ENE 15 22 8 12 1014.3 1014.2 0.0
19/07:00pm 31.8 28.0 7.5 22 13.3 NE 17 30 9 16 1013.7 1013.6 0.0
19/06:30pm 32.5 28.7 1.6 14 15.4 E 11 20 6 11 1013.1 1013.0 0.0
19/06:00pm 34.0 29.8 1.7 13 16.3 ESE 13 19 7 10 1012.5 1012.4 0.0
19/05:30pm 35.4 30.8 1.7 12 17.2 ESE 15 22 8 12 1012.3 1012.2 0.0
19/05:00pm 36.1 31.0 1.0 11 17.8 ESE 17 24 9 13 1012.0 1011.9 0.0
19/04:30pm 36.5 30.9 0.0 10 18.2 ESE 19 30 10 16 1012.0 1011.9 0.0
19/04:00pm 36.9 31.7 0.3 10 18.4 E 17 26 9 14 1012.0 1011.9 0.0
19/03:30pm 37.2 31.9 1.8 11 18.3 ESE 19 30 10 16 1012.2 1012.1 0.0
19/03:00pm 37.5 32.0 0.7 10 18.7 E 19 33 10 18 1012.4 1012.3 0.0
19/02:30pm 36.0 30.9 0.9 11 17.7 SE 17 28 9 15 1012.7 1012.6 0.0
19/02:00pm 36.3 30.9 1.2 11 17.8 ESE 19 26 10 14 1013.2 1013.1 0.0
19/01:30pm 36.7 31.7 1.5 11 18.0 ESE 17 30 9 16 1013.7 1013.6 0.0
19/01:00pm 35.9 30.8 0.9 11 17.7 ESE 17 26 9 14 1014.3 1014.2 0.0
19/12:30pm 35.3 30.3 1.6 12 17.1 ESE 17 26 9 14 1015.0 1014.9 0.0
19/12:00pm 34.1 28.6 0.7 12 16.6 ESE 19 28 10 15 1015.7 1015.6 0.0
19/11:30am 33.7 28.3 1.5 13 16.2 ESE 19 32 10 17 1016.4 1016.3 0.0
19/11:00am 32.9 27.3 0.9 13 15.8 ESE 20 30 11 16 1016.9 1016.8 0.0
19/10:30am 31.7 26.6 1.0 14 15.1 ESE 17 24 9 13 1017.3 1017.2 0.0
19/10:00am 31.2 25.6 1.5 15 14.7 ESE 20 30 11 16 1017.3 1017.2 0.0
19/09:30am 29.6 24.0 1.1 16 13.8 ESE 20 32 11 17 1017.2 1017.1 0.0
19/09:00am 28.1 23.9 3.7 21 12.3 SE 15 26 8 14 1017.0 1016.9 -
19/08:30am 24.5 22.4 5.8 30 9.5 SSE 6 9 3 5 1017.0 1016.9 -
19/08:00am 21.8 20.3 8.3 42 7.1 W 6 7 3 4 1016.8 1016.7 -
19/07:30am 18.5 - 12.5 68 3.3 - - - - - 1016.6 1016.5 -
19/07:00am 15.7 15.2 12.6 82 1.7 W 7 9 4 5 1016.3 1016.2 0.0
19/06:30am 16.0 15.8 12.9 82 1.7 WSW 6 7 3 4 1016.1 1016.0 0.0
19/06:00am 16.4 16.6 14.1 86 1.3 W 6 7 3 4 1015.7 1015.6 0.0
19/05:30am 17.3 17.8 14.9 86 1.4 W 6 7 3 4 1015.4 1015.3 0.0
19/05:00am 17.4 17.4 14.3 82 1.8 WNW 7 7 4 4 1014.9 1014.8 0.0
19/04:30am 18.4 19.6 14.9 80 2.0 WNW 2 7 1 4 1014.7 1014.6 0.0
19/04:00am 19.1 19.8 15.6 80 2.1 NNW 6 7 3 4 1014.5 1014.4 0.0
19/03:30am 19.5 21.3 15.6 78 2.3 CALM 0 0 0 0 1014.4 1014.3 0.0
19/03:00am 20.1 20.7 15.7 76 2.6 W 7 9 4 5 1014.4 1014.3 0.0
19/02:30am 21.4 20.8 16.6 74 2.9 SSW 15 26 8 14 1014.7 1014.6 0.0
19/02:00am 20.0 20.5 15.6 76 2.6 SW 7 9 4 5 1014.4 1014.3 0.0
19/01:30am 20.1 20.8 15.5 75 2.7 SW 6 7 3 4 1014.5 1014.4 0.0
19/01:00am 20.3 20.7 14.7 70 3.3 WNW 6 7 3 4 1014.6 1014.5 0.0
19/12:30am 21.5 23.2 15.3 68 3.7 CALM 0 0 0 0 1014.8 1014.7 0.0
19/12:00am 22.6 24.7 16.2 67 3.9 CALM 0 0 0 0 1014.8 1014.7 0.0
 
Date/Time
CST
Temp
°C
App
Temp
°C
Dew
Point
°C
Rel
Hum
%
Delta-T
°C
Wind Press
QNH
hPa
Press
MSL
hPa
Rain since
9am
mm
Dir  Spd
km/h
Gust
km/h
Spd
kts
Gust
kts
18/11:30pm 23.5 25.6 16.3 64 4.4 CALM 0 0 0 0 1014.9 1014.8 0.0
18/11:00pm 24.8 26.5 16.2 58 5.3 NNE 2 6 1 3 1015.0 1014.9 0.0
18/10:30pm 25.8 27.8 16.1 55 5.9 CALM 0 4 0 2 1015.0 1014.9 0.0
18/10:00pm 26.6 27.2 15.9 51 6.6 NE 7 9 4 5 1015.0 1014.9 0.0
18/09:30pm 27.1 27.7 15.8 50 6.9 N 7 9 4 5 1014.6 1014.5 0.0
18/09:00pm 28.1 28.7 15.7 46 7.6 NNE 7 9 4 5 1014.4 1014.3 0.0
18/08:30pm 28.7 28.7 15.2 43 8.2 N 9 13 5 7 1014.1 1014.0 0.0
18/08:00pm 29.7 29.7 14.3 39 9.3 N 7 11 4 6 1013.8 1013.7 0.0
18/07:30pm 30.5 30.1 14.2 37 9.9 NE 9 15 5 8 1013.4 1013.3 0.0
18/07:00pm 31.4 30.5 13.6 33 10.7 NE 11 17 6 9 1012.9 1012.8 0.0
18/06:30pm 32.4 31.1 13.6 32 11.4 NE 13 20 7 11 1012.5 1012.4 0.0
18/06:00pm 33.7 31.9 13.2 29 12.4 NE 15 20 8 11 1012.1 1012.0 0.0
18/05:30pm 35.0 33.2 12.0 25 13.7 ENE 13 19 7 10 1011.8 1011.7 0.0
18/05:00pm 36.2 33.9 8.9 19 15.6 E 11 19 6 10 1011.6 1011.5 0.0
18/04:30pm 36.3 33.8 9.8 20 15.4 E 13 22 7 12 1011.4 1011.3 0.0
18/04:00pm 36.7 33.3 9.3 19 15.8 ESE 17 26 9 14 1011.5 1011.4 0.0
18/03:30pm 36.3 33.1 9.8 20 15.4 E 17 22 9 12 1011.6 1011.5 0.0
18/03:00pm 36.4 33.9 9.8 20 15.5 E 13 24 7 13 1011.7 1011.6 0.0
18/02:30pm 36.5 33.3 9.9 20 15.5 ESE 17 26 9 14 1012.1 1012.0 0.0
18/02:00pm 36.8 34.1 10.2 20 15.6 E 15 24 8 13 1012.4 1012.3 0.0
18/01:30pm 36.3 33.8 9.8 20 15.4 ESE 13 20 7 11 1012.9 1012.8 0.0
18/01:00pm 35.5 33.4 11.2 23 14.4 E 13 26 7 14 1013.4 1013.3 0.0
18/12:30pm 33.6 33.0 13.6 29 12.2 ESE 9 19 5 10 1014.0 1013.9 0.0
18/12:00pm 33.0 32.4 14.6 33 11.3 N 11 17 6 9 1014.6 1014.5 0.0
18/11:30am 32.7 33.0 16.1 37 10.4 NE 9 17 5 9 1015.1 1015.0 0.0
18/11:00am 30.8 31.1 16.0 40 9.2 ESE 9 15 5 8 1015.6 1015.5 0.0
18/10:30am 29.1 31.0 17.6 50 7.3 N 4 9 2 5 1015.9 1015.8 0.0

Other Formats:

Comma delimited format used in spreadsheet applications
http://www.bom.gov.au/fwo/IDD60801/IDD60801.94239.axf

JavaScript Object Notation format (JSON) in row-major order
http://www.bom.gov.au/fwo/IDD60801/IDD60801.94239.json